Bobcat BOOgie 5K 2018 ag

BOBCAT BOOGIE 5K 5K

BOBCAT BOOGIE 5K

Age Group Results

October 19, 2018


Results By Classic Race Services, LLC Classic Race Services


Men: 0- 7 8-10 11-13 20-29 30-39 40-49 50-59 60-99
Women: 0- 7 8-10 11-13 14-19 20-29 30-39 40-49 50-59

5K

Top

Male 7 and Under

Place Name City Bib No Age Overall Total Time Pace
1 Brayden Eckert Bouse Woodstock GA 36 6 35 26:09.8 8:26/M
2 Ethan Wall Woodstock GA 271 7 50 27:47.0 8:58/M
3 Parker Howell Woodstock GA 126 7 62 28:56.6 9:20/M
4 Aaron Westrip Woodstock GA 466 5 71 29:50.6 9:37/M
5 Callan O'Leary Waleska GA 398 6 74 29:54.9 9:39/M
6 Sky Caesar Woodstock GA 46 6 93 31:52.8 10:17/M
7 Ethan Legendre Woodstock GA 158 6 127 38:55.8 12:33/M
8 Brayden Smith Woodstock GA 238 7 135 39:55.4 12:53/M
Top

Female 7 and Under

Place Name City Bib No Age Overall Total Time Pace
1 Amelia Wolfe Woodstock GA 284 7 19 24:14.7 7:49/M
2 Harper Langton Woodstock GA 149 7 107 34:50.7 11:14/M
3 Rylan Hall Woodstock GA 101 5 139 40:18.6 13:00/M
4 Caitie McKay Woodstock GA 182 7 142 40:53.3 13:11/M
5 Adalynn Banes Woodstock GA 16 6 160 44:19.5 14:18/M
6 Jessica Flannery Woodstock GA 87 7 163 44:35.2 14:23/M
7 Mckenzie Vasquez Woodstock GA 260 5 176 52:33.8 16:57/M
8 Marissa Vasquez Woodstock GA 259 3 177 52:48.0 17:02/M
Top

Male 8 to 10

Place Name City Bib No Age Overall Total Time Pace
1 Charlie Westrip Woodstock GA 465 8 6 21:18.7 6:52/M
2 Walker John Hughes Woodstock GA 127 9 13 23:41.2 7:38/M
3 Ben Gebhart Woodstock GA 482 9 15 23:43.7 7:39/M
4 Colton Kuleszynski 145 8 17 23:57.0 7:44/M
5 Ari Petza Woodstock GA 413 10 20 24:15.2 7:49/M
6 Brady Slaats Woodstock GA 236 10 21 24:34.7 7:55/M
7 Blake Bickerton Woodstock GA 25 8 23 24:48.4 8:00/M
8 Griffen Chwatek Woodstock GA 53 10 25 25:14.7 8:08/M
9 Weston Price Woodstock GA 493 8 29 25:40.5 8:17/M
10 Parker Mahaffey Woodstock GA 172 8 31 25:47.4 8:19/M
11 Noah Sells Woodstock GA 233 9 51 28:19.2 9:08/M
12 Carson Duckworth 79 10 52 28:27.8 9:11/M
13 Callen Nessl Woodstock GA 197 8 53 28:29.6 9:11/M
14 Walker May Woodstock GA 180 10 54 28:31.8 9:12/M
15 Carter Oldroyd Woodstock GA 208 10 55 28:32.8 9:12/M
16 Gavin Jaegers Woodstock GA 492 10 76 30:37.6 9:53/M
17 Keaan Oldroyd Woodstock GA 209 10 78 30:40.1 9:54/M
18 Clayton Byars Woodstock GA 469 8 84 31:05.7 10:02/M
19 Andrew Wolfe Woodstock GA 285 10 85 31:06.1 10:02/M
20 Jarrett Bell Woodstock GA 474 9 86 31:08.9 10:03/M
21 Avery Madigan 168 9 89 31:30.0 10:10/M
22 Kingston Caesar Woodstock GA 44 8 100 33:58.5 10:57/M
23 Phoenix Caesar Woodstock GA 45 10 102 34:05.1 11:00/M
24 Brennan Sota Woodstock GA 240 10 103 34:05.6 11:00/M
25 Eli Atkinson Woodstock GA 11 8 104 34:21.9 11:05/M
26 Michael Motsek 192 8 105 34:24.0 11:06/M
27 Travis Teska Woodstock GA 248 8 120 36:57.0 11:55/M
28 Landon Nessl Woodstock GA 198 10 126 38:54.0 12:33/M
29 Elijah Hanchey Woodstock GA 104 8 132 39:43.9 12:49/M
30 Ayden Marusiodis Woodstock GA 404 9 137 40:07.1 12:56/M
31 Ryan Vernie 262 8 149 41:57.6 13:32/M
32 Grant Henderson Marietta GA 120 8 151 42:33.1 13:44/M
33 Cadence Legendre 156 8 158 43:34.3 14:03/M
Top

Female 8 to 10

Place Name City Bib No Age Overall Total Time Pace
1 Elizabeth Westrip Woodstock GA 464 9 12 23:32.1 7:35/M
2 Taylor Kallbreier Woodstock GA 137 10 26 25:15.2 8:09/M
3 Emma Driskell Woodstock GA 77 9 30 25:42.1 8:17/M
4 Peyton Driskell Woodstock GA 78 9 32 25:48.7 8:19/M
5 Tyler Bickerton Woodstock GA 26 10 34 26:08.9 8:26/M
6 Mallory Daniels Woodstock GA 67 10 36 26:10.3 8:26/M
7 Maddie Oakes Woodstock GA 206 9 38 26:36.0 8:35/M
8 Lila Hedlund Woodstock GA 114 9 48 27:38.9 8:55/M
9 Chloe Topper Woodstock GA 483 9 56 28:33.8 9:13/M
10 Reese Hall Woodstock GA 100 9 60 28:50.9 9:18/M
11 Abigale May Woodstock GA 178 10 63 29:01.5 9:22/M
12 Olivia Dwyer Woodstock GA 84 9 64 29:03.7 9:22/M
13 Caitlin Croft Woodstock GA 64 10 70 29:47.2 9:36/M
14 Emma Karcher 139 8 82 30:50.4 9:57/M
15 Sophie Knerr Woodstock GA 408 10 94 31:57.3 10:18/M
16 Hayden Langton Woodstock GA 150 9 101 33:59.1 10:58/M
17 Maddie Mae Peters Woodstock GA 214 9 117 36:46.2 11:52/M
18 Macy Pala Woodstock GA 460 10 119 36:51.0 11:53/M
19 Cameron Banes Woodstock GA 18 9 121 37:20.0 12:03/M
20 Marley Jackson Woodstock GEORGIA 131 9 141 40:38.7 13:06/M
21 Kylie Gebhart Woodstock GA 481 8 146 41:25.3 13:22/M
22 Reagan Wehr Woodstock GA 276 9 147 41:29.4 13:23/M
23 Norah Luina Woodstock GA 166 10 150 42:18.7 13:39/M
24 Victoria Sprecher Acworth GA 244 10 153 42:42.5 13:46/M
25 Amanda Drawdy 74 8 155 42:59.1 13:52/M
26 Kathryn Flannery Woodstock GA 88 9 162 44:21.7 14:18/M
27 Kate Dallas Woodstock GA 412 10 166 45:33.5 14:42/M
28 Jocelyn Bandy Woodstock GA 14 10 168 45:52.7 14:48/M
29 Samantha Rice 224 9 169 45:55.1 14:49/M
30 Caitlin Marshall 173 10 171 46:44.6 15:05/M
31 Ella Atkinson Woodstock GA 12 10 172 47:11.5 15:13/M
Top

Male 11 to 13

Place Name City Bib No Age Overall Total Time Pace
1 Douglas Oakes Woodstock GA 205 12 2 20:08.9 6:30/M
2 Mathew Valente Woodstock GA 256 11 10 23:09.6 7:28/M
3 Nolan O'Leary Waleska GA 399 11 14 23:43.2 7:39/M
4 Neal O'Connor Woodstock GA 204 13 18 24:11.8 7:48/M
5 Charlie Hanchey Woodstock GA 103 11 33 25:57.4 8:22/M
6 Connor Magline Woodstock GA 410 11 46 27:15.8 8:47/M
7 Colton Milam Woodstock GA 385 13 66 29:18.7 9:27/M
8 Nicholas Knerr Woodstock GA 420 12 88 31:20.5 10:06/M
9 Avery Hamlin Woodstock GA 400 12 124 37:38.9 12:08/M
Top

Female 11 to 13

Place Name City Bib No Age Overall Total Time Pace
1 Abbie Kallbreier Woodstock GA 136 12 4 21:12.1 6:50/M
2 Alexis Castle Woodstock GA 49 12 8 22:00.1 7:06/M
3 Hadley May Woodstock GA 498 11 59 28:49.0 9:18/M
4 Anna Wolfe Woodstock GA 488 12 75 30:22.8 9:48/M
5 Savannah Pullen Woodstock GA 497 11 98 33:34.7 10:50/M
6 Kayla Barnes Woodstock GA 20 11 108 35:19.1 11:24/M
7 Lily Reynolds Woodstock GA 222 11 111 35:27.2 11:26/M
8 Abbey McKay Woodstock GA 181 12 112 35:43.7 11:31/M
9 Hailey Weiner Woodstock GA 280 12 113 35:51.4 11:34/M
10 Grace Hedlund Woodstock GA 112 12 114 35:51.9 11:34/M
11 Charlotte Luina Woodstock GA 164 12 115 35:52.0 11:34/M
12 Emma Limer Woodstock GA 162 12 134 39:54.5 12:52/M
13 Lia Estay Woodstock GA 85 11 152 42:41.3 13:46/M
14 Alex Tomsey Woodstock GA 250 11 154 42:57.8 13:51/M
Top

Female 14 to 19

Place Name City Bib No Age Overall Total Time Pace
1 Darcie Castle Woodstock GA 50 15 37 26:30.4 8:33/M
2 Hannah Luina Woodstock GA 165 15 42 26:43.0 8:37/M
3 Sarah Limer Woodstock GA 163 18 133 39:53.6 12:52/M
Top

Male 20 to 29

Place Name City Bib No Age Overall Total Time Pace
1 Ryan Magline Woodstock GA 411 22 22 24:36.4 7:56/M
2 Chad Jenkins Woodstock GA 133 29 44 26:58.2 8:42/M
Top

Female 20 to 29

Place Name City Bib No Age Overall Total Time Pace
1 Pamela Hess Canton GA 275 27 39 26:40.0 8:36/M
2 Abbey Helfrich Kennesaw GA 116 29 40 26:40.9 8:36/M
3 Alle Campbell Roswell GA 47 29 116 36:35.8 11:48/M
4 Kelsey Pocock Alpharetta GA 216 27 125 38:51.8 12:32/M
Top

Male 30 to 39

Place Name City Bib No Age Overall Total Time Pace
1 Bryan Reynolds Woodstock GA 220 39 7 21:42.6 7:00/M
2 Kip Walker 268 38 27 25:21.6 8:11/M
3 Jared Campbell Roswell GA 48 32 43 26:44.8 8:37/M
4 Justin Shanken Woodstock GA 487 38 72 29:52.9 9:38/M
5 Wesley Karcher Woodstock GA 140 35 83 30:53.7 9:58/M
6 Jeff Quilian 217 37 92 31:45.4 10:15/M
7 Joey Peters Woodstock GA 213 38 118 36:46.8 11:52/M
8 Davey Legendre Woodstock GA 157 36 128 38:56.7 12:34/M
9 Eddie Atkinson 10 34 131 39:39.6 12:47/M
Top

Female 30 to 39

Place Name City Bib No Age Overall Total Time Pace
1 Dhalia Vest Woodstock GA 263 38 45 27:15.2 8:47/M
2 Kristina Valente Woodstock GA 255 38 57 28:45.4 9:16/M
3 Connor Milam Woodstock GA 185 39 65 29:17.9 9:27/M
4 Lauren Burns 40 35 67 29:33.0 9:32/M
5 Trisha Lastly Hull GA 152 34 69 29:42.9 9:35/M
6 Chrissie Driskell Woodstock GA 76 37 79 30:43.2 9:55/M
7 Sofia Geisler Canton GA 90 36 80 30:45.2 9:55/M
8 Lauren Duplantis 83 37 91 31:42.0 10:14/M
9 Callie Mahaffey Woodstock GA 170 33 122 37:23.5 12:04/M
10 Crystal Atkinson Woodstock GA 9 35 130 39:38.9 12:47/M
11 Emily Caesar Woodstock GA 43 38 144 41:22.4 13:21/M
12 Jessie Legendre 159 37 159 43:35.3 14:04/M
13 Kimberly Banes Woodstock GA 19 32 161 44:20.5 14:18/M
14 Jennifer Flannery Woodstock GA 86 39 167 45:42.6 14:45/M
15 Candis Novak Canton GA 201 38 175 52:22.5 16:54/M
16 Kristen Vasquez Woodstock GA 257 33 178 52:57.8 17:05/M
Top

Male 40 to 49

Place Name City Bib No Age Overall Total Time Pace
1 Christopher Motsek 191 40 1 18:51.3 6:05/M
2 David Beeland Hoschton GA 21 49 3 20:39.1 6:40/M
3 Charles Westrip Woodstock GA 462 43 5 21:14.7 6:51/M
4 Clint Kallibreier 138 41 9 22:57.5 7:24/M
5 Chris Kuleszynski Woodstock GA 143 40 16 23:56.5 7:43/M
6 Doug Oakes Woodstock GA 417 45 28 25:36.1 8:15/M
7 Scott Luina Woodstock GA 167 41 41 26:42.5 8:37/M
8 D J McKay Woodstock GA 183 43 47 27:35.6 8:54/M
9 Jeff Hedlund Woodstock GA 113 43 49 27:39.7 8:55/M
10 Scott Cockrell Woodstock GA 58 41 58 28:48.4 9:17/M
11 Lee Martin Woodstock GA 175 48 61 28:55.6 9:20/M
12 Jason Jaegers Woodstock GA 490 41 77 30:38.2 9:53/M
13 Adam Hall Woodstock GA 98 44 96 32:53.7 10:36/M
14 Ryan Langton 151 44 106 34:47.2 11:13/M
15 John Drawdy 75 48 173 48:11.0 15:33/M
Top

Female 40 to 49

Place Name City Bib No Age Overall Total Time Pace
1 Elizabeth Knerr Woodstock GA 407 40 11 23:18.1 7:31/M
2 Ami Weiner Woodstock GA 278 44 24 25:03.9 8:05/M
3 Lara Cazenave Canton GA 418 48 68 29:42.2 9:35/M
4 Holly Westrip Woodstock GA 463 44 73 29:53.7 9:38/M
5 Carrie May Woodstock GA 179 45 87 31:09.6 10:03/M
6 Jennifer Hanchey Woodstock GA 105 44 95 32:19.1 10:25/M
7 Melissa Madigan Woodstock GA 169 46 97 33:19.2 10:45/M
8 Andrea O'Connor Woodstock GA 203 42 99 33:47.5 10:54/M
9 Carrie Lavette Woodstock GA 153 42 109 35:22.9 11:25/M
10 Karla White Woodstock GA 402 46 129 39:18.1 12:41/M
11 Jami Stefano 246 42 136 40:04.0 12:55/M
12 Stephanie Marusiodis Woodstock GA 403 40 138 40:07.8 12:56/M
13 Kim Hall Woodstock GA 99 43 140 40:19.7 13:00/M
14 Maggie McKay Woodstock GA 184 41 143 40:54.5 13:12/M
15 Courtney Sota Woodstock GA 241 49 145 41:23.8 13:21/M
16 Trevor Hedlund Woodstock GA 115 43 148 41:33.0 13:24/M
17 Tandy Smith Woodstock GA 472 40 165 45:02.1 14:32/M
18 Katherine Christopher Marietta GA 52 44 170 46:41.6 15:04/M
Top

Male 50 to 59

Place Name City Bib No Age Overall Total Time Pace
1 Jason Rice 223 50 164 44:49.5 14:27/M
Top

Female 50 to 59

Place Name City Bib No Age Overall Total Time Pace
1 Luisa Sandoval Kennesaw GA 230 58 90 31:40.0 10:13/M
2 Christie Smith Woodstock GA 239 51 110 35:23.2 11:25/M
3 Mary Nguyen Acworth GA 199 52 123 37:32.0 12:06/M
4 Joan Dellinger Woodstock GA 68 58 157 43:03.8 13:53/M
5 Bonnie Banes Woodstock GA 17 59 174 51:00.1 16:27/M
Top

Male 60 and Over

Place Name City Bib No Age Overall Total Time Pace
1 Herman Sasser Marietta GA 494 73 81 30:48.3 9:56/M
2 Mark Bower 396 66 156 43:02.0 13:53/M